createdAt,value
2023-04-13T00:00:41.204Z,99190.53
2023-04-13T00:03:12.154Z,99175.06
2023-04-13T00:05:39.887Z,99176.72
2023-04-13T00:08:07.304Z,99176.63
2023-04-13T00:10:41.317Z,99172.47
2023-04-13T00:13:10.200Z,99168.19
2023-04-13T00:15:40.850Z,99165.66
2023-04-13T00:18:08.802Z,99158.75
2023-04-13T00:20:35.544Z,99154.31
2023-04-13T00:23:02.653Z,99154.47
2023-04-13T00:25:29.300Z,99151.09
2023-04-13T00:27:56.457Z,99151.03
2023-04-13T00:30:23.007Z,99153.44
2023-04-13T00:32:49.691Z,99151.84
2023-04-13T00:35:19.247Z,99148.38
2023-04-13T00:37:49.801Z,99142.38
2023-04-13T00:40:19.207Z,99137.16
2023-04-13T00:42:48.237Z,99143.19
2023-04-13T00:45:16.241Z,99138.91
2023-04-13T00:47:46.596Z,99134.50
2023-04-13T00:50:18.475Z,99131.97
2023-04-13T00:52:46.414Z,99119.97
2023-04-13T00:55:14.551Z,99124.13
2023-04-13T00:57:41.880Z,99123.34
2023-04-13T01:00:09.691Z,99124.19
2023-04-13T01:02:41.961Z,99111.28
2023-04-13T01:05:12.539Z,99113.91
2023-04-13T01:08:00.130Z,99110.50
2023-04-13T01:10:38.976Z,99098.34
2023-04-13T01:13:44.920Z,99106.19
2023-04-13T01:16:19.370Z,99103.47
2023-04-13T01:18:51.308Z,99106.13
2023-04-13T01:21:24.224Z,99101.81
2023-04-13T01:24:06.241Z,99096.66
2023-04-13T01:27:01.877Z,99091.47
2023-04-13T01:29:29.862Z,99091.41
2023-04-13T01:31:57.005Z,99090.59
2023-04-13T01:34:24.573Z,99092.31
2023-04-13T01:36:51.437Z,99088.91
2023-04-13T01:39:19.894Z,99088.84
2023-04-13T01:41:47.933Z,99085.50
2023-04-13T01:44:14.593Z,99092.41
2023-04-13T01:46:50.450Z,99093.19
2023-04-13T01:49:35.894Z,99090.63
2023-04-13T01:52:05.821Z,99093.28
2023-04-13T01:54:33.808Z,99095.84
2023-04-13T01:57:02.106Z,99099.38
2023-04-13T01:59:29.389Z,99108.81
2023-04-13T02:01:57.477Z,99095.97
2023-04-13T02:04:24.378Z,99108.91
2023-04-13T02:06:51.562Z,99103.78
2023-04-13T02:09:24.268Z,99108.91
2023-04-13T02:11:55.270Z,99084.78
2023-04-13T02:14:22.239Z,99094.25
2023-04-13T02:16:49.357Z,99098.50
2023-04-13T02:19:16.072Z,99091.63
2023-04-13T02:21:42.598Z,99092.50
2023-04-13T02:24:11.717Z,99082.25
2023-04-13T02:26:38.494Z,99093.38
2023-04-13T02:29:05.651Z,99082.13
2023-04-13T02:31:33.706Z,99088.19
2023-04-13T02:34:00.456Z,99086.56
2023-04-13T02:36:29.075Z,99089.94
2023-04-13T02:39:00.663Z,99085.69
2023-04-13T02:41:32.393Z,99086.53
2023-04-13T02:43:59.896Z,99090.88
2023-04-13T02:46:32.941Z,99081.41
2023-04-13T02:49:11.038Z,99096.03
2023-04-13T02:51:44.534Z,99086.56
2023-04-13T02:54:12.389Z,99082.28
2023-04-13T02:56:44.873Z,99077.94
2023-04-13T02:59:11.759Z,99081.44
2023-04-13T03:01:39.558Z,99083.16
2023-04-13T03:04:07.079Z,99079.72
2023-04-13T03:06:35.032Z,99072.84
2023-04-13T03:09:01.767Z,99076.31
2023-04-13T03:11:35.627Z,99076.28
2023-04-13T03:14:22.949Z,99078.03
2023-04-13T03:16:57.621Z,99075.44
2023-04-13T03:19:31.730Z,99078.88
2023-04-13T03:21:59.052Z,99065.97
2023-04-13T03:24:27.760Z,99072.84
2023-04-13T03:26:58.000Z,99077.16
2023-04-13T03:29:32.101Z,99071.97
2023-04-13T03:31:59.034Z,99060.81
2023-04-13T03:34:29.277Z,99067.72
2023-04-13T03:36:56.385Z,99066.00
2023-04-13T03:39:22.982Z,99059.13
2023-04-13T03:41:49.520Z,99053.91
2023-04-13T03:44:17.568Z,99056.50
2023-04-13T03:46:44.889Z,99059.97
2023-04-13T03:49:25.330Z,99059.97
2023-04-13T03:51:52.008Z,99053.06
2023-04-13T03:54:19.228Z,99054.78
2023-04-13T03:56:46.292Z,99055.66
2023-04-13T03:59:14.285Z,99056.53
2023-04-13T04:01:41.100Z,99066.88
2023-04-13T04:04:08.433Z,99068.59
2023-04-13T04:06:36.117Z,99072.03
2023-04-13T04:09:20.733Z,99072.03
2023-04-13T04:11:48.040Z,99074.63
2023-04-13T04:14:20.870Z,99080.69
2023-04-13T04:16:53.673Z,99072.91
2023-04-13T04:19:20.517Z,99070.31
2023-04-13T04:21:47.833Z,99072.06
2023-04-13T04:24:22.486Z,99079.81
2023-04-13T04:26:55.160Z,99079.81
2023-04-13T04:29:29.820Z,99076.38
2023-04-13T04:31:57.731Z,99078.06
2023-04-13T04:34:24.328Z,99086.72
2023-04-13T04:36:52.503Z,99095.31
2023-04-13T04:39:23.966Z,99090.16
2023-04-13T04:42:02.972Z,99096.22
2023-04-13T04:44:31.138Z,99095.31
2023-04-13T04:47:02.802Z,99090.16
2023-04-13T04:49:31.736Z,99094.47
2023-04-13T04:51:58.639Z,99092.75
2023-04-13T04:54:25.593Z,99108.25
2023-04-13T04:56:52.522Z,99092.72
2023-04-13T04:59:20.491Z,99113.44
2023-04-13T05:01:56.021Z,99112.59
2023-04-13T05:04:22.619Z,99116.03
2023-04-13T05:06:49.284Z,99116.91
2023-04-13T05:09:20.647Z,99120.34
2023-04-13T05:11:51.274Z,99131.53
2023-04-13T05:14:19.967Z,99138.47
2023-04-13T05:16:46.563Z,99136.75
2023-04-13T05:19:20.839Z,99141.91
2023-04-13T05:21:50.148Z,99143.63
2023-04-13T05:24:17.410Z,99154.00
2023-04-13T05:26:45.251Z,99157.50
2023-04-13T05:29:16.447Z,99157.47
2023-04-13T05:31:44.900Z,99166.94
2023-04-13T05:34:11.713Z,99166.94
2023-04-13T05:36:39.835Z,99169.56
2023-04-13T05:39:10.957Z,99173.81
2023-04-13T05:41:38.253Z,99172.97
2023-04-13T05:44:05.993Z,99188.50
2023-04-13T05:46:35.131Z,99188.47
2023-04-13T05:49:05.130Z,99197.94
2023-04-13T05:51:33.042Z,99198.00
2023-04-13T05:53:59.615Z,99199.66
2023-04-13T05:56:26.638Z,99200.56
2023-04-13T05:58:54.502Z,99204.88
2023-04-13T06:01:25.841Z,99216.94
2023-04-13T06:03:53.960Z,99216.97
2023-04-13T06:06:21.196Z,99227.31
2023-04-13T06:08:48.364Z,99235.91
2023-04-13T06:11:16.450Z,99235.06
2023-04-13T06:13:43.541Z,99250.44
2023-04-13T06:16:10.424Z,99242.84
2023-04-13T06:18:37.444Z,99253.06
2023-04-13T06:21:04.330Z,99257.41
2023-04-13T06:23:30.875Z,99266.88
2023-04-13T06:26:00.334Z,99259.94
2023-04-13T06:28:38.611Z,99270.19
2023-04-13T06:31:06.418Z,99261.69
2023-04-13T06:33:33.778Z,99262.59
2023-04-13T06:36:00.773Z,99260.91
2023-04-13T06:38:28.242Z,99265.22
2023-04-13T06:41:03.966Z,99266.91
2023-04-13T06:43:33.969Z,99262.63
2023-04-13T06:46:14.507Z,99264.31
2023-04-13T06:48:43.449Z,99266.06
2023-04-13T06:51:10.154Z,99268.66
2023-04-13T06:53:36.862Z,99266.91
2023-04-13T06:56:03.904Z,99280.69
2023-04-13T06:58:31.243Z,99279.00
2023-04-13T07:00:57.938Z,99288.53
2023-04-13T07:03:28.265Z,99292.00
2023-04-13T07:05:55.578Z,99300.69
2023-04-13T07:08:22.135Z,99311.84
2023-04-13T07:10:54.317Z,99312.59
2023-04-13T07:13:28.956Z,99314.38
2023-04-13T07:15:56.113Z,99313.44
2023-04-13T07:18:23.077Z,99313.44
2023-04-13T07:20:49.696Z,99313.44
2023-04-13T07:23:18.822Z,99309.94
2023-04-13T07:25:45.617Z,99316.19
2023-04-13T07:28:18.722Z,99326.53
2023-04-13T07:30:46.839Z,99329.06
2023-04-13T07:33:14.611Z,99332.59
2023-04-13T07:35:41.369Z,99337.00
2023-04-13T07:38:10.610Z,99339.56
2023-04-13T07:40:37.285Z,99341.34
2023-04-13T07:43:07.636Z,99341.38
2023-04-13T07:45:38.060Z,99350.00
2023-04-13T07:48:06.512Z,99350.88
2023-04-13T07:50:40.018Z,99360.41
2023-04-13T07:53:09.197Z,99354.34
2023-04-13T07:55:37.553Z,99349.16
2023-04-13T07:58:05.677Z,99343.09
2023-04-13T08:00:32.341Z,99352.63
2023-04-13T08:03:02.102Z,99358.63
2023-04-13T08:05:30.656Z,99357.78
2023-04-13T08:07:57.214Z,99353.47
2023-04-13T08:10:24.913Z,99364.72
2023-04-13T08:12:53.470Z,99374.22
2023-04-13T08:15:21.396Z,99379.38
2023-04-13T08:17:48.548Z,99373.31
2023-04-13T08:20:19.812Z,99385.41
2023-04-13T08:22:46.462Z,99389.75
2023-04-13T08:25:13.090Z,99387.16
2023-04-13T08:27:39.768Z,99393.16
2023-04-13T08:30:08.058Z,99400.09
2023-04-13T08:32:44.394Z,99401.81
2023-04-13T08:35:11.641Z,99404.41
2023-04-13T08:37:42.562Z,99412.16
2023-04-13T08:40:12.009Z,99408.72
2023-04-13T08:42:41.359Z,99403.47
2023-04-13T08:45:09.172Z,99408.69
2023-04-13T08:47:40.794Z,99417.25
2023-04-13T08:50:09.159Z,99417.19
2023-04-13T08:52:45.409Z,99422.41
2023-04-13T08:55:15.697Z,99417.94
2023-04-13T08:57:50.022Z,99426.59
2023-04-13T09:00:19.391Z,99427.47
2023-04-13T09:03:03.706Z,99426.44
2023-04-13T09:05:38.237Z,99437.00
2023-04-13T09:08:07.969Z,99444.81
2023-04-13T09:10:36.844Z,99448.25
2023-04-13T09:13:04.740Z,99453.31
2023-04-13T09:15:32.712Z,99451.50
2023-04-13T09:18:16.055Z,99465.38
2023-04-13T09:20:59.347Z,99466.25
2023-04-13T09:23:26.621Z,99469.78
2023-04-13T09:26:09.949Z,99474.31
2023-04-13T09:29:00.009Z,99470.78
2023-04-13T09:31:27.009Z,99479.44
2023-04-13T09:33:53.589Z,99487.25
2023-04-13T09:36:22.538Z,99490.72
2023-04-13T09:38:53.903Z,99497.78
2023-04-13T09:41:29.556Z,99494.28
2023-04-13T09:43:56.259Z,99494.28
2023-04-13T09:46:22.782Z,99500.41
2023-04-13T09:49:03.146Z,99498.59
2023-04-13T09:51:41.090Z,99498.63
2023-04-13T09:54:08.093Z,99508.13
2023-04-13T09:56:48.415Z,99502.97
2023-04-13T09:59:16.112Z,99508.03
2023-04-13T10:01:44.082Z,99510.63
2023-04-13T10:04:10.880Z,99524.66
2023-04-13T10:06:42.985Z,99515.06
2023-04-13T10:09:10.651Z,99523.75
2023-04-13T10:11:41.678Z,99532.38
2023-04-13T10:14:18.138Z,99538.47
2023-04-13T10:17:05.590Z,99539.31
2023-04-13T10:19:39.072Z,99542.84
2023-04-13T10:22:08.913Z,99538.44
2023-04-13T10:24:36.888Z,99554.91
2023-04-13T10:27:19.084Z,99549.69
2023-04-13T10:29:47.249Z,99559.09
2023-04-13T10:32:25.125Z,99564.19
2023-04-13T10:34:52.783Z,99565.63
2023-04-13T10:37:26.271Z,99570.94
2023-04-13T10:40:06.738Z,99562.16
2023-04-13T10:45:27.286Z,99570.84
2023-04-13T10:47:58.424Z,99562.13
2023-04-13T10:50:27.642Z,99565.63
2023-04-13T10:53:07.625Z,99567.44
2023-04-13T10:55:35.872Z,99567.00
2023-04-13T10:58:13.792Z,99570.59
2023-04-13T11:00:46.204Z,99577.19
2023-04-13T11:03:17.553Z,99576.16
2023-04-13T11:05:56.537Z,99586.78
2023-04-13T11:08:24.282Z,99577.88
2023-04-13T11:10:52.624Z,99574.91
2023-04-13T11:13:19.764Z,99586.47
2023-04-13T11:15:48.082Z,99589.56
2023-04-13T11:18:25.620Z,99593.91
2023-04-13T11:20:52.318Z,99592.28
2023-04-13T11:23:19.932Z,99598.31
2023-04-13T11:25:54.992Z,99600.88
2023-04-13T11:28:23.308Z,99600.13
2023-04-13T11:30:53.713Z,99613.22
2023-04-13T11:33:27.568Z,99613.28
2023-04-13T11:35:58.975Z,99616.84
2023-04-13T11:38:26.911Z,99617.63
2023-04-13T11:41:14.372Z,99607.03
2023-04-13T11:43:45.822Z,99607.88
2023-04-13T11:46:13.806Z,99621.75
2023-04-13T11:48:40.770Z,99616.59
2023-04-13T11:51:08.196Z,99618.22
2023-04-13T11:53:37.952Z,99618.44
2023-04-13T11:56:05.109Z,99628.38
2023-04-13T11:58:31.788Z,99631.56
2023-04-13T12:01:03.076Z,99623.22
2023-04-13T12:03:47.720Z,99631.28
2023-04-13T12:06:23.118Z,99631.09
2023-04-13T12:08:56.194Z,99630.81
2023-04-13T12:11:41.408Z,99631.66
2023-04-13T12:17:03.844Z,99636.41
2023-04-13T12:19:40.925Z,99642.91
2023-04-13T12:22:09.606Z,99656.88
2023-04-13T12:24:39.970Z,99655.25
2023-04-13T12:29:40.656Z,99669.16
2023-04-13T12:32:14.216Z,99676.97
2023-04-13T12:34:42.184Z,99674.03
2023-04-13T12:37:11.025Z,99682.09
2023-04-13T12:39:37.903Z,99691.66
2023-04-13T12:42:05.204Z,99691.66
2023-04-13T12:44:33.797Z,99689.84
2023-04-13T12:47:01.105Z,99689.75
2023-04-13T12:49:28.156Z,99681.88
2023-04-13T12:51:54.714Z,99681.78
2023-04-13T12:54:21.246Z,99683.41
2023-04-13T12:56:47.795Z,99688.63
2023-04-13T12:59:14.399Z,99688.44
2023-04-13T13:01:40.937Z,99682.94
2023-04-13T13:04:07.630Z,99682.94
2023-04-13T13:06:34.472Z,99697.72
2023-04-13T13:09:01.588Z,99701.50
2023-04-13T13:11:28.455Z,99699.66
2023-04-13T13:13:55.330Z,99695.22
2023-04-13T13:16:21.984Z,99689.09
2023-04-13T13:18:51.200Z,99693.97
2023-04-13T13:21:18.377Z,99695.50
2023-04-13T13:23:45.489Z,99698.25
2023-04-13T13:28:42.338Z,99707.03
2023-04-13T13:31:09.092Z,99705.31
2023-04-13T13:33:36.292Z,99712.25
2023-04-13T13:36:02.894Z,99718.25
2023-04-13T13:38:29.540Z,99721.59
2023-04-13T13:40:56.316Z,99719.63
2023-04-13T13:43:22.964Z,99731.25
2023-04-13T13:45:49.711Z,99733.06
2023-04-13T13:48:16.567Z,99737.56
2023-04-13T13:50:51.026Z,99734.88
2023-04-13T13:53:17.932Z,99732.91
2023-04-13T13:55:45.306Z,99738.81
2023-04-13T13:58:11.916Z,99737.25
2023-04-13T14:00:38.504Z,99737.19
2023-04-13T14:03:05.694Z,99740.91
2023-04-13T14:05:32.444Z,99748.75
2023-04-13T14:07:59.267Z,99747.00
2023-04-13T14:10:25.800Z,99753.22
2023-04-13T14:12:53.037Z,99750.72
2023-04-13T14:15:19.610Z,99766.38
2023-04-13T14:17:52.954Z,99761.16
2023-04-13T14:20:28.883Z,99764.53
2023-04-13T14:22:57.047Z,99765.50
2023-04-13T14:25:23.632Z,99766.88
2023-04-13T14:27:50.395Z,99770.16
2023-04-13T14:30:19.932Z,99775.59
2023-04-13T14:32:52.140Z,99770.50
2023-04-13T14:35:20.042Z,99778.34
2023-04-13T14:37:47.537Z,99773.09
2023-04-13T14:40:16.839Z,99763.31
2023-04-13T14:42:43.508Z,99760.91
2023-04-13T14:45:13.496Z,99754.59
2023-04-13T14:47:40.352Z,99762.31
2023-04-13T14:50:08.475Z,99767.81
2023-04-13T14:52:35.317Z,99769.28
2023-04-13T14:55:04.294Z,99768.03
2023-04-13T14:57:31.376Z,99767.06
2023-04-13T14:59:57.932Z,99776.41
2023-04-13T15:02:24.623Z,99769.63
2023-04-13T15:04:51.480Z,99785.97
2023-04-13T15:07:18.871Z,99770.66
2023-04-13T15:09:45.482Z,99776.41
2023-04-13T15:12:13.649Z,99785.56
2023-04-13T15:14:40.999Z,99788.34
2023-04-13T15:17:08.588Z,99787.22
2023-04-13T15:19:35.266Z,99792.19
2023-04-13T15:22:01.805Z,99787.81
2023-04-13T15:24:28.288Z,99796.94
2023-04-13T15:26:55.153Z,99806.69
2023-04-13T15:29:21.726Z,99820.97
2023-04-13T15:31:48.408Z,99820.50
2023-04-13T15:34:15.422Z,99811.72
2023-04-13T15:36:41.992Z,99817.19
2023-04-13T15:39:08.602Z,99824.41
2023-04-13T15:41:35.195Z,99822.66
2023-04-13T15:44:03.151Z,99827.38
2023-04-13T15:46:30.012Z,99825.63
2023-04-13T15:48:56.632Z,99837.25
2023-04-13T15:51:23.391Z,99828.72
2023-04-13T15:53:49.960Z,99840.59
2023-04-13T15:56:17.313Z,99844.03
2023-04-13T15:58:43.969Z,99843.22
2023-04-13T16:01:11.582Z,99836.25
2023-04-13T16:03:40.317Z,99849.06
2023-04-13T16:06:10.745Z,99845.84
2023-04-13T16:08:37.382Z,99848.47
2023-04-13T16:11:04.006Z,99854.81
2023-04-13T16:13:48.859Z,99854.19
2023-04-13T16:16:16.912Z,99855.84
2023-04-13T16:18:43.520Z,99870.53
2023-04-13T16:21:11.118Z,99866.44
2023-04-13T16:23:38.155Z,99869.97
2023-04-13T16:26:05.076Z,99872.47
2023-04-13T16:28:31.630Z,99882.50
2023-04-13T16:30:58.860Z,99876.81
2023-04-13T16:33:25.445Z,99894.47
2023-04-13T16:35:52.005Z,99895.53
2023-04-13T16:38:18.557Z,99894.81
2023-04-13T16:40:45.095Z,99894.25
2023-04-13T16:43:11.682Z,99893.84
2023-04-13T16:45:38.348Z,99904.25
2023-04-13T16:48:05.477Z,99902.38
2023-04-13T16:50:32.473Z,99901.03
2023-04-13T16:52:59.547Z,99905.63
2023-04-13T16:55:28.271Z,99905.94
2023-04-13T16:57:55.651Z,99915.47
2023-04-13T17:00:23.183Z,99925.09
2023-04-13T17:02:50.099Z,99929.75
2023-04-13T17:05:17.247Z,99933.91
2023-04-13T17:07:46.797Z,99932.44
2023-04-13T17:10:13.703Z,99938.34
2023-04-13T17:12:40.764Z,99943.31
2023-04-13T17:15:08.153Z,99938.75
2023-04-13T17:17:35.182Z,99943.31
2023-04-13T17:20:02.156Z,99941.84
2023-04-13T17:22:28.824Z,99950.00
2023-04-13T17:24:55.655Z,99955.41
2023-04-13T17:27:22.305Z,99947.03
2023-04-13T17:29:49.790Z,99957.03
2023-04-13T17:32:16.831Z,99950.06
2023-04-13T17:34:44.705Z,99959.31
2023-04-13T17:37:11.757Z,99966.25
2023-04-13T17:39:42.123Z,99973.38
2023-04-13T17:42:09.422Z,99969.31
2023-04-13T17:44:36.231Z,99967.56
2023-04-13T17:47:02.840Z,99984.00
2023-04-13T17:49:29.609Z,99985.50
2023-04-13T17:51:58.944Z,99991.97
2023-04-13T17:54:26.905Z,99996.06
2023-04-13T17:56:54.166Z,99984.81
2023-04-13T17:59:21.167Z,99990.97
2023-04-13T18:01:53.152Z,99995.16
2023-04-13T18:04:20.167Z,99987.34
2023-04-13T18:06:46.823Z,99991.78
2023-04-13T18:09:14.162Z,99995.28
2023-04-13T18:11:40.922Z,99997.03
2023-04-13T18:14:09.035Z,100009.28
2023-04-13T18:16:36.116Z,100004.16
2023-04-13T18:19:02.925Z,100006.00
2023-04-13T18:21:29.894Z,100010.41
2023-04-13T18:23:56.852Z,100010.38
2023-04-13T18:26:23.706Z,100009.59
2023-04-13T18:28:50.412Z,100014.84
2023-04-13T18:31:17.366Z,100015.78
2023-04-13T18:33:44.597Z,100027.19
2023-04-13T18:36:16.273Z,100030.66
2023-04-13T18:38:43.486Z,100041.09
2023-04-13T18:41:10.561Z,100037.63
2023-04-13T18:43:37.293Z,100041.13
2023-04-13T18:46:04.119Z,100058.50
2023-04-13T18:48:31.534Z,100061.09
2023-04-13T18:50:58.130Z,100065.41
2023-04-13T18:53:24.796Z,100071.47
2023-04-13T18:55:52.353Z,100061.91
2023-04-13T18:58:19.717Z,100069.69
2023-04-13T19:00:47.010Z,100071.41
2023-04-13T19:03:14.144Z,100071.38
2023-04-13T19:05:40.965Z,100084.25
2023-04-13T19:08:09.856Z,100079.91
2023-04-13T19:10:36.574Z,100092.91
2023-04-13T19:13:03.184Z,100098.13
2023-04-13T19:15:31.078Z,100088.56
2023-04-13T19:17:59.236Z,100087.66
2023-04-13T19:20:25.923Z,100093.72
2023-04-13T19:22:52.575Z,100092.84
2023-04-13T19:25:19.317Z,100097.97
2023-04-13T19:27:46.583Z,100097.03
2023-04-13T19:30:14.913Z,100103.09
2023-04-13T19:32:44.113Z,100098.66
2023-04-13T19:35:12.477Z,100101.28
2023-04-13T19:37:39.300Z,100101.22
2023-04-13T19:40:09.568Z,100102.03
2023-04-13T19:42:36.794Z,100101.16
2023-04-13T19:45:03.983Z,100096.81
2023-04-13T19:47:30.876Z,100106.25
2023-04-13T19:49:57.459Z,100102.63
2023-04-13T19:52:25.024Z,100101.69
2023-04-13T19:54:51.884Z,100109.44
2023-04-13T19:57:18.635Z,100112.09
2023-04-13T19:59:45.354Z,100119.75
2023-04-13T20:02:12.096Z,100131.00
2023-04-13T20:04:40.205Z,100127.41
2023-04-13T20:07:07.238Z,100125.66
2023-04-13T20:09:33.778Z,100131.63
2023-04-13T20:12:00.733Z,100135.03
2023-04-13T20:14:27.458Z,100133.25
2023-04-13T20:16:54.014Z,100130.69
2023-04-13T20:19:21.238Z,100133.28
2023-04-13T20:21:47.857Z,100131.59
2023-04-13T20:24:14.395Z,100134.94
2023-04-13T20:26:42.139Z,100136.44
2023-04-13T20:29:09.016Z,100131.22
2023-04-13T20:31:36.893Z,100137.22
2023-04-13T20:34:03.907Z,100139.78
2023-04-13T20:36:31.372Z,100141.50
2023-04-13T20:38:59.293Z,100155.19
2023-04-13T20:41:29.661Z,100141.28
2023-04-13T20:43:56.254Z,100148.09
2023-04-13T20:46:25.259Z,100141.88
2023-04-13T20:48:52.408Z,100137.50
2023-04-13T20:51:22.821Z,100140.88
2023-04-13T20:53:51.087Z,100133.03
2023-04-13T20:56:19.032Z,100130.34
2023-04-13T20:58:46.605Z,100133.78
2023-04-13T21:01:15.370Z,100137.13
2023-04-13T21:03:42.273Z,100138.00
2023-04-13T21:06:09.063Z,100136.06
2023-04-13T21:08:35.617Z,100136.66
2023-04-13T21:11:02.340Z,100133.13
2023-04-13T21:13:30.377Z,100136.44
2023-04-13T21:15:56.947Z,100142.34
2023-04-13T21:18:23.544Z,100133.63
2023-04-13T21:20:50.326Z,100137.81
2023-04-13T21:23:17.178Z,100137.56
2023-04-13T21:25:44.489Z,100138.47
2023-04-13T21:28:11.276Z,100132.22
2023-04-13T21:30:37.821Z,100139.25
2023-04-13T21:33:04.407Z,100139.50
2023-04-13T21:35:30.956Z,100140.25
2023-04-13T21:37:57.519Z,100140.88
2023-04-13T21:40:24.743Z,100144.94
2023-04-13T21:42:51.298Z,100138.72
2023-04-13T21:45:17.849Z,100147.44
2023-04-13T21:47:44.441Z,100147.44
2023-04-13T21:50:11.083Z,100139.84
2023-04-13T21:52:37.575Z,100138.56
2023-04-13T21:55:04.453Z,100144.53
2023-04-13T21:57:31.598Z,100146.19
2023-04-13T21:59:58.177Z,100147.00
2023-04-13T22:02:24.899Z,100148.66
2023-04-13T22:04:51.654Z,100147.78
2023-04-13T22:07:22.155Z,100157.91
2023-04-13T22:09:55.615Z,100158.84
2023-04-13T22:12:22.128Z,100161.53
2023-04-13T22:14:48.736Z,100159.75
2023-04-13T22:17:15.354Z,100164.78
2023-04-13T22:19:41.908Z,100167.25
2023-04-13T22:22:08.422Z,100168.84
2023-04-13T22:24:35.179Z,100168.59
2023-04-13T22:27:03.266Z,100171.16
2023-04-13T22:29:30.273Z,100165.16
2023-04-13T22:31:58.467Z,100171.09
2023-04-13T22:34:27.132Z,100176.09
2023-04-13T22:36:53.804Z,100172.25
2023-04-13T22:39:20.578Z,100177.22
2023-04-13T22:41:47.112Z,100175.28
2023-04-13T22:44:13.647Z,100170.34
2023-04-13T22:46:40.444Z,100174.75
2023-04-13T22:49:06.922Z,100183.16
2023-04-13T22:51:40.237Z,100181.38
2023-04-13T22:54:07.012Z,100188.88
2023-04-13T22:56:33.562Z,100187.13
2023-04-13T22:59:00.326Z,100180.94
2023-04-13T23:01:27.172Z,100191.44
2023-04-13T23:03:53.974Z,100180.34
2023-04-13T23:06:20.660Z,100191.41
2023-04-13T23:08:47.539Z,100193.91
2023-04-13T23:11:14.061Z,100193.84
2023-04-13T23:13:41.715Z,100196.31
2023-04-13T23:16:08.395Z,100200.59
2023-04-13T23:18:34.977Z,100198.72
2023-04-13T23:21:09.938Z,100206.50
2023-04-13T23:23:37.203Z,100202.03
2023-04-13T23:26:04.067Z,100205.41
2023-04-13T23:28:30.744Z,100204.19
2023-04-13T23:31:07.924Z,100206.19
2023-04-13T23:33:35.659Z,100206.13
2023-04-13T23:36:02.373Z,100203.38
2023-04-13T23:38:29.705Z,100213.00
2023-04-13T23:40:57.083Z,100209.41
2023-04-13T23:43:24.480Z,100205.91
2023-04-13T23:45:52.232Z,100214.97
2023-04-13T23:48:19.961Z,100204.44
2023-04-13T23:50:47.241Z,100202.13
2023-04-13T23:53:14.222Z,100204.03
2023-04-13T23:55:40.974Z,100214.31
2023-04-13T23:58:07.635Z,100214.47
